sim
Sign-in with your pilot id or email,
or register
Callsign
Passwort

Schedule Details

Flight Number: DLH677 (2)
Departure: Marrakesh Menara Airport (GMMX) at 14:50
Arrival: Munich Airport (EDDM) at 18:35
Route: Lufthansa Passenger Schedule. Enter filed route here before submitting Pirep.

Weather Information
Getting current METAR information for GMMX 190730Z 27003KT 230V300 CAVOK 19/15 Q1020 NOSIG
Getting current METAR information for EDDM 190720Z 07004KT 030V110 CAVOK 11/06 Q1020 NOSIG

Schedule Frequency

Route Map